Terminal Aerodrome Forecast
Issued by NWS Grand Forks, ND

Home | Current Version | Previous Version | Graphics & Text | Print | Product List | Glossary On
Versions: 1 2 3 4 5 6 7 8 9 10 11 12 13 14 15 16
000
FTUS43 KFGF 141120
TAFFAR
TAF
KFAR 141120Z 1412/1512 11005KT P6SM BKN250
      TEMPO 1414/1418 -RA OVC060
     FM141800 02010KT P6SM -RA OVC050
     FM150000 36008KT P6SM OVC035
     FM150400 33008KT P6SM BKN050
     FM150500 32008KT P6SM SKC=

USA.gov is the U.S. government's official web portal to all federal, state and local government web resources and services.